createdAt,value
2023-02-15T00:00:11.548Z,8.40
2023-02-15T00:02:38.534Z,8.40
2023-02-15T00:05:05.793Z,8.40
2023-02-15T00:07:32.525Z,8.20
2023-02-15T00:12:26.475Z,8.10
2023-02-15T00:14:53.268Z,8.10
2023-02-15T00:17:19.980Z,8.10
2023-02-15T00:19:46.681Z,8.00
2023-02-15T00:24:41.494Z,7.90
2023-02-15T00:27:10.005Z,7.80
2023-02-15T00:34:31.200Z,7.70
2023-02-15T00:36:58.367Z,7.60
2023-02-15T00:39:25.332Z,7.60
2023-02-15T00:41:52.083Z,7.60
2023-02-15T00:44:18.888Z,7.50
2023-02-15T00:46:45.682Z,7.50
2023-02-15T00:49:12.689Z,7.50
2023-02-15T00:51:40.460Z,7.50
2023-02-15T00:54:07.773Z,7.40
2023-02-15T00:56:34.560Z,7.40
2023-02-15T00:59:01.838Z,7.30
2023-02-15T01:01:28.582Z,7.30
2023-02-15T01:03:55.397Z,7.30
2023-02-15T01:06:22.293Z,7.20
2023-02-15T01:08:49.511Z,6.90
2023-02-15T01:11:23.265Z,7.20
2023-02-15T01:13:51.724Z,7.10
2023-02-15T01:16:19.258Z,7.10
2023-02-15T01:18:46.024Z,7.10
2023-02-15T01:21:20.025Z,7.10
2023-02-15T01:23:46.821Z,7.10
2023-02-15T01:26:14.547Z,7.00
2023-02-15T01:28:41.947Z,6.90
2023-02-15T01:31:17.091Z,7.00
2023-02-15T01:33:44.086Z,7.00
2023-02-15T01:36:11.656Z,6.90
2023-02-15T01:38:38.532Z,6.90
2023-02-15T01:41:23.672Z,6.90
2023-02-15T01:43:57.909Z,6.90
2023-02-15T01:46:37.761Z,6.80
2023-02-15T01:49:17.348Z,6.80
2023-02-15T01:51:48.206Z,6.80
2023-02-15T01:54:37.546Z,6.80
2023-02-15T01:57:11.693Z,6.80
2023-02-15T01:59:43.114Z,6.80
2023-02-15T02:02:14.408Z,6.70
2023-02-15T02:04:53.893Z,6.70
2023-02-15T02:07:24.880Z,6.70
2023-02-15T02:09:51.762Z,6.70
2023-02-15T02:12:22.120Z,6.70
2023-02-15T02:14:51.670Z,6.70
2023-02-15T02:17:43.651Z,6.70
2023-02-15T02:20:53.982Z,6.70
2023-02-15T02:23:50.115Z,6.70
2023-02-15T02:27:24.959Z,6.60
2023-02-15T02:30:33.911Z,6.60
2023-02-15T02:33:56.514Z,6.60
2023-02-15T02:36:48.603Z,6.60
2023-02-15T02:39:49.067Z,6.60
2023-02-15T02:42:36.694Z,6.50
2023-02-15T02:45:32.960Z,6.50
2023-02-15T02:48:20.631Z,6.50
2023-02-15T02:50:47.345Z,6.50
2023-02-15T02:53:14.041Z,6.50
2023-02-15T02:55:53.109Z,6.20
2023-02-15T02:58:30.248Z,6.40
2023-02-15T03:01:07.330Z,6.40
2023-02-15T03:03:43.579Z,6.40
2023-02-15T03:06:24.694Z,6.40
2023-02-15T03:09:04.085Z,6.40
2023-02-15T03:11:31.591Z,6.40
2023-02-15T03:13:59.176Z,6.40
2023-02-15T03:16:27.097Z,6.30
2023-02-15T03:19:11.154Z,6.30
2023-02-15T03:21:58.545Z,6.30
2023-02-15T03:24:35.571Z,6.00
2023-02-15T03:27:11.202Z,6.20
2023-02-15T03:29:39.664Z,6.50
2023-02-15T03:32:11.272Z,5.90
2023-02-15T03:34:38.340Z,6.10
2023-02-15T03:37:31.582Z,6.00
2023-02-15T03:40:25.588Z,6.00
2023-02-15T03:43:13.825Z,6.10
2023-02-15T03:45:55.446Z,5.90
2023-02-15T03:48:40.809Z,5.70
2023-02-15T03:51:34.605Z,5.60
2023-02-15T03:54:38.101Z,5.70
2023-02-15T03:57:26.524Z,5.80
2023-02-15T04:00:11.943Z,8.90
2023-02-15T04:03:15.683Z,5.70
2023-02-15T04:05:45.855Z,5.60
2023-02-15T04:08:13.832Z,5.50
2023-02-15T04:10:57.199Z,5.50
2023-02-15T04:13:31.686Z,5.50
2023-02-15T04:16:05.984Z,5.40
2023-02-15T04:18:58.835Z,5.40
2023-02-15T04:21:47.393Z,5.40
2023-02-15T04:24:33.230Z,5.30
2023-02-15T04:27:00.820Z,5.00
2023-02-15T04:29:28.664Z,5.20
2023-02-15T04:32:00.450Z,5.10
2023-02-15T04:34:27.708Z,5.10
2023-02-15T04:36:54.427Z,5.10
2023-02-15T04:39:21.160Z,5.00
2023-02-15T04:41:48.717Z,5.00
2023-02-15T04:44:15.924Z,4.80
2023-02-15T04:46:42.668Z,4.90
2023-02-15T04:49:10.315Z,4.90
2023-02-15T04:51:37.464Z,5.00
2023-02-15T04:54:04.397Z,4.80
2023-02-15T04:56:32.130Z,4.70
2023-02-15T04:58:58.844Z,4.70
2023-02-15T05:01:25.640Z,4.70
2023-02-15T05:03:52.414Z,4.70
2023-02-15T05:06:19.216Z,4.70
2023-02-15T05:08:46.528Z,4.60
2023-02-15T05:11:13.296Z,4.60
2023-02-15T05:13:40.004Z,4.60
2023-02-15T05:16:06.771Z,4.60
2023-02-15T05:18:33.625Z,4.60
2023-02-15T05:21:00.354Z,4.60
2023-02-15T05:23:27.439Z,4.50
2023-02-15T05:26:12.672Z,4.50
2023-02-15T05:28:40.062Z,4.50
2023-02-15T05:31:16.025Z,4.80
2023-02-15T05:33:43.804Z,4.50
2023-02-15T05:36:11.782Z,4.40
2023-02-15T05:38:39.553Z,4.40
2023-02-15T05:41:08.576Z,4.40
2023-02-15T05:43:36.050Z,4.50
2023-02-15T05:46:04.895Z,4.50
2023-02-15T05:48:32.811Z,4.50
2023-02-15T05:51:16.783Z,4.50
2023-02-15T05:53:43.811Z,4.60
2023-02-15T05:56:12.918Z,4.60
2023-02-15T05:58:42.484Z,4.60
2023-02-15T06:01:16.298Z,4.60
2023-02-15T06:03:43.235Z,4.70
2023-02-15T06:06:10.776Z,4.70
2023-02-15T06:08:39.016Z,4.60
2023-02-15T06:11:06.775Z,4.70
2023-02-15T06:13:38.034Z,4.70
2023-02-15T06:16:06.898Z,4.70
2023-02-15T06:18:33.956Z,4.70
2023-02-15T06:21:00.860Z,4.60
2023-02-15T06:23:27.636Z,4.60
2023-02-15T06:25:54.364Z,4.60
2023-02-15T06:28:21.116Z,4.60
2023-02-15T06:30:48.014Z,4.50
2023-02-15T06:33:14.794Z,4.50
2023-02-15T06:35:41.507Z,4.50
2023-02-15T06:38:08.233Z,4.50
2023-02-15T06:40:35.014Z,4.50
2023-02-15T06:43:01.804Z,4.60
2023-02-15T06:45:28.553Z,4.50
2023-02-15T06:47:55.262Z,4.50
2023-02-15T06:50:21.970Z,4.50
2023-02-15T06:52:48.779Z,4.60
2023-02-15T06:55:15.658Z,4.40
2023-02-15T06:57:42.587Z,4.50
2023-02-15T07:00:10.057Z,4.50
2023-02-15T07:05:06.096Z,4.50
2023-02-15T07:07:33.027Z,4.60
2023-02-15T07:09:59.789Z,4.60
2023-02-15T07:12:45.495Z,4.50
2023-02-15T07:15:16.621Z,4.60
2023-02-15T07:17:44.548Z,4.60
2023-02-15T07:20:23.840Z,6.00
2023-02-15T07:25:19.251Z,4.80
2023-02-15T07:30:17.424Z,4.70
2023-02-15T07:33:05.556Z,4.70
2023-02-15T07:35:33.597Z,4.80
2023-02-15T07:38:01.904Z,4.80
2023-02-15T07:40:28.678Z,4.90
2023-02-15T07:43:00.072Z,4.80
2023-02-15T07:45:27.861Z,4.90
2023-02-15T07:47:54.606Z,4.90
2023-02-15T07:50:21.322Z,4.80
2023-02-15T07:52:48.078Z,5.00
2023-02-15T07:55:14.946Z,5.00
2023-02-15T07:57:46.571Z,5.00
2023-02-15T08:00:19.227Z,5.10
2023-02-15T08:03:10.625Z,5.10
2023-02-15T08:05:37.608Z,5.50
2023-02-15T08:08:04.940Z,5.10
2023-02-15T08:11:03.980Z,5.40
2023-02-15T08:13:30.691Z,5.20
2023-02-15T08:15:57.421Z,5.60
2023-02-15T08:18:24.230Z,5.40
2023-02-15T08:20:51.463Z,5.30
2023-02-15T08:23:18.254Z,5.40
2023-02-15T08:25:45.103Z,5.40
2023-02-15T08:28:12.127Z,5.70
2023-02-15T08:30:38.913Z,5.50
2023-02-15T08:33:05.627Z,5.50
2023-02-15T08:35:32.506Z,5.60
2023-02-15T08:37:59.267Z,5.60
2023-02-15T08:40:25.991Z,5.60
2023-02-15T08:42:52.721Z,5.60
2023-02-15T08:45:19.472Z,5.50
2023-02-15T08:47:46.416Z,5.70
2023-02-15T08:50:13.147Z,5.50
2023-02-15T08:52:39.883Z,5.70
2023-02-15T08:55:06.885Z,5.50
2023-02-15T08:57:33.590Z,5.80
2023-02-15T09:00:00.368Z,5.80
2023-02-15T09:02:27.148Z,5.60
2023-02-15T09:04:54.099Z,5.90
2023-02-15T09:09:48.120Z,6.20
2023-02-15T09:12:14.842Z,6.00
2023-02-15T09:14:41.593Z,6.10
2023-02-15T09:17:08.331Z,6.10
2023-02-15T09:19:35.172Z,6.20
2023-02-15T09:22:01.924Z,6.30
2023-02-15T09:24:32.421Z,6.30
2023-02-15T09:26:59.126Z,6.30
2023-02-15T09:29:25.842Z,6.20
2023-02-15T09:31:54.451Z,6.70
2023-02-15T09:34:23.447Z,6.40
2023-02-15T09:36:52.084Z,6.40
2023-02-15T09:41:56.084Z,6.50
2023-02-15T09:44:53.742Z,6.60
2023-02-15T09:47:53.535Z,6.70
2023-02-15T09:50:30.538Z,7.00
2023-02-15T09:53:39.589Z,6.70
2023-02-15T09:56:39.761Z,6.80
2023-02-15T09:59:38.436Z,6.80
2023-02-15T10:02:25.519Z,6.90
2023-02-15T10:05:08.402Z,7.00
2023-02-15T10:08:41.686Z,7.00
2023-02-15T10:11:46.273Z,7.10
2023-02-15T10:14:39.071Z,7.20
2023-02-15T10:17:27.033Z,7.90
2023-02-15T10:20:30.176Z,7.30
2023-02-15T10:23:40.743Z,7.40
2023-02-15T10:26:42.703Z,7.40
2023-02-15T10:29:43.060Z,7.50
2023-02-15T10:32:25.109Z,7.50
2023-02-15T10:35:12.646Z,7.50
2023-02-15T10:38:09.135Z,7.50
2023-02-15T10:41:05.412Z,7.50
2023-02-15T10:43:57.143Z,7.60
2023-02-15T10:47:01.359Z,7.60
2023-02-15T10:49:51.753Z,7.50
2023-02-15T10:52:35.991Z,7.50
2023-02-15T10:55:43.197Z,7.40
2023-02-15T10:58:21.699Z,7.50
2023-02-15T11:01:01.595Z,7.30
2023-02-15T11:04:09.023Z,7.40
2023-02-15T11:06:43.615Z,7.40
2023-02-15T11:09:18.996Z,7.30
2023-02-15T11:11:53.815Z,7.40
2023-02-15T11:14:47.472Z,7.40
2023-02-15T11:17:23.185Z,7.40
2023-02-15T11:20:09.757Z,7.40
2023-02-15T11:22:37.171Z,7.40
2023-02-15T11:25:20.232Z,7.50
2023-02-15T11:27:50.383Z,7.50
2023-02-15T11:30:41.793Z,7.50
2023-02-15T11:33:23.324Z,5.10
2023-02-15T11:36:12.950Z,7.50
2023-02-15T11:38:44.673Z,7.60
2023-02-15T11:41:15.844Z,7.70
2023-02-15T11:44:07.967Z,7.70
2023-02-15T11:49:03.840Z,7.80
2023-02-15T11:51:30.667Z,7.90
2023-02-15T11:53:57.658Z,10.10
2023-02-15T11:56:27.011Z,8.10
2023-02-15T11:59:03.992Z,8.20
2023-02-15T12:01:43.294Z,8.20
2023-02-15T12:04:31.269Z,8.20
2023-02-15T12:07:23.476Z,8.40
2023-02-15T12:10:05.067Z,8.50
2023-02-15T12:12:35.902Z,8.60
2023-02-15T12:15:09.838Z,8.70
2023-02-15T12:17:40.498Z,8.90
2023-02-15T12:20:16.433Z,9.10
2023-02-15T12:23:05.165Z,9.10
2023-02-15T12:25:52.847Z,9.20
2023-02-15T12:28:40.400Z,9.30
2023-02-15T12:31:28.022Z,9.40
2023-02-15T12:33:59.069Z,9.40
2023-02-15T12:36:51.703Z,9.30
2023-02-15T12:39:36.926Z,9.50
2023-02-15T12:42:16.949Z,9.60
2023-02-15T12:45:20.722Z,9.70
2023-02-15T12:48:07.875Z,9.70
2023-02-15T12:50:35.295Z,9.80
2023-02-15T12:53:26.381Z,9.90
2023-02-15T12:55:58.113Z,9.90
2023-02-15T12:58:31.924Z,9.90
2023-02-15T13:01:13.635Z,10.20
2023-02-15T13:04:04.259Z,10.00
2023-02-15T13:06:37.491Z,10.10
2023-02-15T13:09:40.563Z,10.10
2023-02-15T13:12:27.372Z,10.20
2023-02-15T13:14:56.254Z,10.40
2023-02-15T13:17:30.547Z,10.60
2023-02-15T13:22:45.640Z,10.60
2023-02-15T13:25:30.659Z,10.60
2023-02-15T13:28:04.316Z,10.70
2023-02-15T13:30:39.706Z,10.80
2023-02-15T13:33:18.834Z,10.90
2023-02-15T13:36:03.406Z,11.10
2023-02-15T13:39:11.724Z,11.10
2023-02-15T13:42:03.266Z,11.20
2023-02-15T13:45:26.432Z,11.30
2023-02-15T13:48:34.145Z,11.50
2023-02-15T13:51:27.348Z,11.60
2023-02-15T13:54:37.208Z,11.70
2023-02-15T13:57:41.665Z,11.80
2023-02-15T14:00:59.180Z,11.90
2023-02-15T14:04:05.587Z,12.10
2023-02-15T14:06:59.208Z,12.10
2023-02-15T14:09:32.211Z,12.10
2023-02-15T14:12:04.737Z,12.20
2023-02-15T14:15:13.055Z,12.20
2023-02-15T14:17:59.291Z,12.30
2023-02-15T14:20:42.183Z,12.40
2023-02-15T14:23:50.094Z,12.40
2023-02-15T14:26:38.285Z,12.40
2023-02-15T14:29:37.667Z,12.80
2023-02-15T14:32:47.226Z,12.60
2023-02-15T14:35:25.870Z,12.50
2023-02-15T14:38:10.761Z,12.50
2023-02-15T14:41:13.477Z,12.60
2023-02-15T14:43:59.710Z,12.60
2023-02-15T14:46:51.252Z,12.70
2023-02-15T14:49:32.302Z,12.70
2023-02-15T14:52:08.057Z,12.70
2023-02-15T14:54:34.734Z,12.70
2023-02-15T14:57:01.391Z,12.70
2023-02-15T14:59:59.110Z,12.80
2023-02-15T15:02:27.528Z,12.90
2023-02-15T15:05:11.555Z,12.70
2023-02-15T15:07:49.683Z,12.70
2023-02-15T15:12:53.457Z,12.70
2023-02-15T15:15:31.880Z,12.90
2023-02-15T15:18:10.484Z,12.70
2023-02-15T15:20:52.665Z,12.80
2023-02-15T15:23:19.343Z,12.70
2023-02-15T15:25:57.739Z,12.60
2023-02-15T15:28:36.299Z,12.70
2023-02-15T15:31:42.951Z,12.80
2023-02-15T15:34:52.209Z,12.70
2023-02-15T15:37:48.342Z,12.70
2023-02-15T15:40:41.628Z,12.70
2023-02-15T15:44:02.411Z,12.80
2023-02-15T15:47:10.367Z,12.80
2023-02-15T15:49:40.203Z,12.70
2023-02-15T15:52:20.015Z,12.70
2023-02-15T15:54:53.844Z,12.50
2023-02-15T15:57:40.387Z,12.70
2023-02-15T16:00:36.094Z,12.70
2023-02-15T16:03:03.454Z,12.70
2023-02-15T16:05:38.465Z,12.70
2023-02-15T16:08:06.361Z,12.60
2023-02-15T16:10:35.091Z,12.60
2023-02-15T16:13:03.135Z,12.50
2023-02-15T16:15:46.049Z,12.50
2023-02-15T16:18:19.097Z,12.50
2023-02-15T16:20:57.862Z,12.40
2023-02-15T16:23:56.143Z,12.40
2023-02-15T16:27:04.344Z,12.30
2023-02-15T16:29:34.207Z,12.30
2023-02-15T16:32:28.968Z,12.20
2023-02-15T16:34:59.730Z,12.20
2023-02-15T16:37:34.535Z,12.10
2023-02-15T16:40:01.595Z,12.10
2023-02-15T16:42:28.579Z,12.10
2023-02-15T16:45:17.078Z,12.00
2023-02-15T16:47:49.940Z,12.00
2023-02-15T16:50:38.555Z,12.00
2023-02-15T16:53:14.718Z,11.90
2023-02-15T16:55:43.873Z,11.80
2023-02-15T16:58:17.497Z,11.80
2023-02-15T17:00:45.107Z,11.40
2023-02-15T17:03:14.819Z,11.60
2023-02-15T17:05:50.838Z,11.60
2023-02-15T17:08:20.719Z,11.60
2023-02-15T17:11:10.810Z,11.50
2023-02-15T17:13:37.708Z,11.50
2023-02-15T17:16:04.730Z,11.40
2023-02-15T17:18:39.132Z,11.40
2023-02-15T17:21:28.610Z,11.30
2023-02-15T17:24:01.449Z,11.30
2023-02-15T17:26:34.109Z,11.30
2023-02-15T17:29:34.994Z,11.10
2023-02-15T17:32:03.015Z,11.20
2023-02-15T17:35:00.675Z,11.20
2023-02-15T17:37:39.711Z,11.30
2023-02-15T17:40:25.735Z,11.10
2023-02-15T17:45:22.425Z,11.20
2023-02-15T17:47:50.357Z,10.90
2023-02-15T17:50:26.136Z,10.90
2023-02-15T17:52:56.272Z,11.40
2023-02-15T17:55:40.039Z,10.90
2023-02-15T17:58:22.771Z,10.80
2023-02-15T18:01:15.972Z,10.60
2023-02-15T18:04:08.388Z,10.70
2023-02-15T18:06:57.670Z,10.60
2023-02-15T18:09:44.716Z,10.60
2023-02-15T18:12:26.612Z,10.60
2023-02-15T18:14:55.154Z,10.50
2023-02-15T18:17:46.970Z,10.40
2023-02-15T18:20:28.154Z,10.30
2023-02-15T18:22:55.272Z,10.40
2023-02-15T18:25:25.459Z,10.30
2023-02-15T18:27:54.844Z,10.30
2023-02-15T18:30:26.479Z,10.30
2023-02-15T18:32:57.125Z,10.20
2023-02-15T18:35:28.416Z,10.20
2023-02-15T18:37:55.592Z,10.10
2023-02-15T18:40:27.471Z,10.10
2023-02-15T18:42:56.902Z,10.00
2023-02-15T18:45:28.737Z,10.00
2023-02-15T18:47:55.568Z,10.00
2023-02-15T18:50:29.006Z,9.90
2023-02-15T18:52:55.781Z,9.90
2023-02-15T18:55:27.939Z,9.90
2023-02-15T18:57:57.332Z,9.80
2023-02-15T19:00:34.227Z,9.80
2023-02-15T19:03:02.651Z,9.80
2023-02-15T19:05:31.970Z,9.70
2023-02-15T19:08:01.602Z,9.70
2023-02-15T19:10:31.796Z,9.70
2023-02-15T19:12:59.300Z,9.70
2023-02-15T19:15:30.438Z,9.60
2023-02-15T19:17:57.388Z,9.60
2023-02-15T19:20:36.220Z,9.50
2023-02-15T19:23:03.774Z,9.70
2023-02-15T19:25:37.586Z,9.50
2023-02-15T19:28:16.170Z,9.50
2023-02-15T19:30:43.388Z,9.50
2023-02-15T19:33:20.106Z,9.30
2023-02-15T19:35:52.406Z,9.40
2023-02-15T19:38:26.073Z,9.40
2023-02-15T19:40:53.110Z,9.40
2023-02-15T19:43:26.875Z,9.40
2023-02-15T19:45:53.888Z,9.40
2023-02-15T19:48:20.672Z,9.30
2023-02-15T19:50:48.983Z,9.30
2023-02-15T19:53:25.574Z,9.50
2023-02-15T19:55:53.177Z,9.30
2023-02-15T19:58:20.474Z,9.30
2023-02-15T20:00:49.924Z,9.20
2023-02-15T20:03:17.317Z,9.30
2023-02-15T20:05:45.326Z,9.20
2023-02-15T20:08:18.466Z,9.20
2023-02-15T20:10:45.964Z,9.20
2023-02-15T20:13:18.548Z,9.20
2023-02-15T20:15:46.686Z,9.20
2023-02-15T20:18:13.850Z,9.10
2023-02-15T20:20:49.404Z,9.10
2023-02-15T20:23:37.214Z,9.00
2023-02-15T20:26:18.337Z,9.00
2023-02-15T20:28:46.736Z,9.00
2023-02-15T20:31:20.309Z,9.00
2023-02-15T20:33:50.740Z,9.00
2023-02-15T20:36:20.881Z,8.90
2023-02-15T20:38:48.219Z,8.90
2023-02-15T20:41:36.124Z,8.90
2023-02-15T20:44:27.640Z,8.80
2023-02-15T20:46:57.137Z,8.80
2023-02-15T20:49:26.195Z,8.80
2023-02-15T20:51:57.244Z,8.70
2023-02-15T20:54:29.200Z,8.70
2023-02-15T20:56:55.921Z,8.60
2023-02-15T20:59:32.356Z,8.80
2023-02-15T21:02:02.784Z,8.60
2023-02-15T21:04:33.171Z,8.60
2023-02-15T21:07:01.051Z,8.50
2023-02-15T21:09:28.229Z,8.50
2023-02-15T21:11:58.254Z,8.40
2023-02-15T21:14:28.305Z,8.40
2023-02-15T21:16:55.242Z,8.40
2023-02-15T21:21:53.387Z,8.40
2023-02-15T21:24:28.914Z,8.40
2023-02-15T21:27:00.045Z,8.30
2023-02-15T21:29:29.192Z,8.30
2023-02-15T21:32:00.353Z,8.30
2023-02-15T21:34:27.258Z,8.30
2023-02-15T21:36:54.148Z,8.30
2023-02-15T21:39:27.779Z,8.30
2023-02-15T21:42:14.954Z,8.20
2023-02-15T21:45:00.987Z,8.20
2023-02-15T21:47:50.117Z,8.20
2023-02-15T21:50:42.125Z,8.20
2023-02-15T21:53:19.866Z,8.10
2023-02-15T21:55:46.605Z,8.10
2023-02-15T21:58:22.919Z,8.10
2023-02-15T22:00:50.258Z,8.00
2023-02-15T22:03:17.206Z,8.60
2023-02-15T22:05:44.026Z,8.00
2023-02-15T22:08:14.156Z,8.00
2023-02-15T22:10:42.582Z,8.00
2023-02-15T22:13:16.066Z,8.00
2023-02-15T22:15:46.564Z,7.90
2023-02-15T22:18:24.194Z,8.40
2023-02-15T22:23:19.754Z,7.90
2023-02-15T22:25:57.777Z,7.90
2023-02-15T22:28:35.890Z,7.90
2023-02-15T22:31:06.712Z,7.90
2023-02-15T22:33:34.741Z,7.90
2023-02-15T22:36:02.283Z,7.90
2023-02-15T22:38:29.053Z,7.90
2023-02-15T22:41:03.644Z,7.90
2023-02-15T22:43:40.152Z,7.90
2023-02-15T22:46:22.244Z,7.90
2023-02-15T22:48:49.815Z,7.90
2023-02-15T22:51:21.164Z,7.90
2023-02-15T22:53:51.752Z,8.10
2023-02-15T22:56:36.636Z,7.90
2023-02-15T22:59:19.220Z,7.90
2023-02-15T23:01:46.570Z,7.90
2023-02-15T23:04:20.210Z,7.90
2023-02-15T23:06:47.873Z,7.90
2023-02-15T23:09:16.362Z,7.90
2023-02-15T23:11:44.216Z,7.90
2023-02-15T23:14:19.868Z,7.90
2023-02-15T23:16:46.621Z,7.90
2023-02-15T23:19:15.577Z,7.90
2023-02-15T23:21:42.903Z,7.90
2023-02-15T23:24:26.867Z,7.90
2023-02-15T23:26:54.759Z,7.90
2023-02-15T23:29:23.829Z,7.80
2023-02-15T23:31:53.466Z,7.90
2023-02-15T23:34:27.644Z,7.90
2023-02-15T23:36:54.683Z,7.80
2023-02-15T23:39:47.035Z,7.90
2023-02-15T23:42:21.327Z,7.80
2023-02-15T23:44:48.678Z,7.80
2023-02-15T23:47:44.089Z,7.80
2023-02-15T23:50:27.071Z,7.80
2023-02-15T23:52:55.388Z,7.70
2023-02-15T23:55:25.459Z,7.70
2023-02-15T23:57:53.473Z,7.70
